sensor_id;sensor_type;location;lat;lon;timestamp;temperature;humidity
45549;DHT22;31270;48.328;10.096;2022-09-03T00:01:20;14.80;99.90
45549;DHT22;31270;48.328;10.096;2022-09-03T00:03:56;14.80;99.90
45549;DHT22;31270;48.328;10.096;2022-09-03T00:06:37;14.80;99.90
45549;DHT22;31270;48.328;10.096;2022-09-03T00:09:12;14.80;99.90
45549;DHT22;31270;48.328;10.096;2022-09-03T00:11:51;14.90;99.90
45549;DHT22;31270;48.328;10.096;2022-09-03T00:14:27;14.90;99.90
45549;DHT22;31270;48.328;10.096;2022-09-03T00:17:01;14.80;99.90
45549;DHT22;31270;48.328;10.096;2022-09-03T00:19:33;14.80;99.90
45549;DHT22;31270;48.328;10.096;2022-09-03T00:22:04;15.00;99.90
45549;DHT22;31270;48.328;10.096;2022-09-03T00:24:35;14.80;99.90
45549;DHT22;31270;48.328;10.096;2022-09-03T00:27:05;14.80;99.90
45549;DHT22;31270;48.328;10.096;2022-09-03T00:29:54;14.90;99.90
45549;DHT22;31270;48.328;10.096;2022-09-03T00:32:43;14.80;99.90
45549;DHT22;31270;48.328;10.096;2022-09-03T00:38:06;14.80;99.90
45549;DHT22;31270;48.328;10.096;2022-09-03T00:46:35;14.80;99.90
45549;DHT22;31270;48.328;10.096;2022-09-03T01:00:13;14.60;99.90
45549;DHT22;31270;48.328;10.096;2022-09-03T01:14:00;14.40;99.90
45549;DHT22;31270;48.328;10.096;2022-09-03T01:16:56;14.30;99.90
45549;DHT22;31270;48.328;10.096;2022-09-03T01:28:02;14.00;99.90
45549;DHT22;31270;48.328;10.096;2022-09-03T01:30:37;14.00;99.90
45549;DHT22;31270;48.328;10.096;2022-09-03T01:33:19;14.00;99.90
45549;DHT22;31270;48.328;10.096;2022-09-03T01:35:57;14.00;99.90
45549;DHT22;31270;48.328;10.096;2022-09-03T01:38:47;14.00;99.90
45549;DHT22;31270;48.328;10.096;2022-09-03T01:44:51;14.00;99.90
45549;DHT22;31270;48.328;10.096;2022-09-03T01:50:21;14.00;99.90
45549;DHT22;31270;48.328;10.096;2022-09-03T01:53:01;14.00;99.90
45549;DHT22;31270;48.328;10.096;2022-09-03T01:55:33;13.90;99.90
45549;DHT22;31270;48.328;10.096;2022-09-03T01:58:17;13.80;99.90
45549;DHT22;31270;48.328;10.096;2022-09-03T02:00:53;13.80;99.90
45549;DHT22;31270;48.328;10.096;2022-09-03T02:03:22;13.80;99.90
45549;DHT22;31270;48.328;10.096;2022-09-03T02:05:48;13.80;99.90
45549;DHT22;31270;48.328;10.096;2022-09-03T02:08:18;13.70;99.90
45549;DHT22;31270;48.328;10.096;2022-09-03T02:10:49;13.70;99.90
45549;DHT22;31270;48.328;10.096;2022-09-03T02:13:31;13.60;99.90
45549;DHT22;31270;48.328;10.096;2022-09-03T02:16:04;13.60;99.90
45549;DHT22;31270;48.328;10.096;2022-09-03T02:18:38;13.60;99.90
45549;DHT22;31270;48.328;10.096;2022-09-03T02:21:06;13.50;99.90
45549;DHT22;31270;48.328;10.096;2022-09-03T02:23:32;13.50;99.90
45549;DHT22;31270;48.328;10.096;2022-09-03T02:26:00;13.40;99.90
45549;DHT22;31270;48.328;10.096;2022-09-03T02:28:28;13.40;99.90
45549;DHT22;31270;48.328;10.096;2022-09-03T02:30:54;13.40;99.90
45549;DHT22;31270;48.328;10.096;2022-09-03T02:33:21;13.40;99.90
45549;DHT22;31270;48.328;10.096;2022-09-03T02:35:47;13.30;99.90
45549;DHT22;31270;48.328;10.096;2022-09-03T02:38:16;13.30;99.90
45549;DHT22;31270;48.328;10.096;2022-09-03T02:40:42;13.30;99.90
45549;DHT22;31270;48.328;10.096;2022-09-03T02:43:12;13.20;99.90
45549;DHT22;31270;48.328;10.096;2022-09-03T02:45:46;13.20;99.90
45549;DHT22;31270;48.328;10.096;2022-09-03T02:48:15;13.20;99.90
45549;DHT22;31270;48.328;10.096;2022-09-03T02:50:42;13.20;99.90
45549;DHT22;31270;48.328;10.096;2022-09-03T02:53:08;13.10;99.90
45549;DHT22;31270;48.328;10.096;2022-09-03T02:55:34;13.10;99.90
45549;DHT22;31270;48.328;10.096;2022-09-03T02:58:00;13.20;99.90
45549;DHT22;31270;48.328;10.096;2022-09-03T03:00:26;13.20;99.90
45549;DHT22;31270;48.328;10.096;2022-09-03T03:02:54;13.20;99.90
45549;DHT22;31270;48.328;10.096;2022-09-03T03:05:29;13.20;99.90
45549;DHT22;31270;48.328;10.096;2022-09-03T03:07:56;13.20;99.90
45549;DHT22;31270;48.328;10.096;2022-09-03T03:10:22;13.20;99.90
45549;DHT22;31270;48.328;10.096;2022-09-03T03:12:48;13.20;99.90
45549;DHT22;31270;48.328;10.096;2022-09-03T03:15:13;13.20;99.90
45549;DHT22;31270;48.328;10.096;2022-09-03T03:17:39;13.40;99.90
45549;DHT22;31270;48.328;10.096;2022-09-03T03:20:05;13.30;99.90
45549;DHT22;31270;48.328;10.096;2022-09-03T03:22:31;13.30;99.90
45549;DHT22;31270;48.328;10.096;2022-09-03T03:24:57;13.40;99.90
45549;DHT22;31270;48.328;10.096;2022-09-03T03:27:22;13.30;99.90
45549;DHT22;31270;48.328;10.096;2022-09-03T03:29:48;13.30;99.90
45549;DHT22;31270;48.328;10.096;2022-09-03T03:32:15;13.30;99.90
45549;DHT22;31270;48.328;10.096;2022-09-03T03:34:40;13.30;99.90
45549;DHT22;31270;48.328;10.096;2022-09-03T03:37:06;13.30;99.90
45549;DHT22;31270;48.328;10.096;2022-09-03T03:39:31;13.30;99.90
45549;DHT22;31270;48.328;10.096;2022-09-03T03:41:57;13.30;99.90
45549;DHT22;31270;48.328;10.096;2022-09-03T03:44:23;13.30;99.90
45549;DHT22;31270;48.328;10.096;2022-09-03T03:46:48;13.30;99.90
45549;DHT22;31270;48.328;10.096;2022-09-03T03:49:14;13.30;99.90
45549;DHT22;31270;48.328;10.096;2022-09-03T03:51:39;13.40;99.90
45549;DHT22;31270;48.328;10.096;2022-09-03T03:54:05;13.40;99.90
45549;DHT22;31270;48.328;10.096;2022-09-03T03:56:31;13.40;99.90
45549;DHT22;31270;48.328;10.096;2022-09-03T03:58:58;13.50;99.90
45549;DHT22;31270;48.328;10.096;2022-09-03T04:01:25;13.40;99.90
45549;DHT22;31270;48.328;10.096;2022-09-03T04:03:54;13.40;99.90
45549;DHT22;31270;48.328;10.096;2022-09-03T04:06:20;13.50;99.90
45549;DHT22;31270;48.328;10.096;2022-09-03T04:08:47;13.40;99.90
45549;DHT22;31270;48.328;10.096;2022-09-03T04:11:15;13.40;99.90
45549;DHT22;31270;48.328;10.096;2022-09-03T04:13:43;13.40;99.90
45549;DHT22;31270;48.328;10.096;2022-09-03T04:16:17;13.30;99.90
45549;DHT22;31270;48.328;10.096;2022-09-03T04:18:44;13.30;99.90
45549;DHT22;31270;48.328;10.096;2022-09-03T04:21:12;13.30;99.90
45549;DHT22;31270;48.328;10.096;2022-09-03T04:23:40;13.40;99.90
45549;DHT22;31270;48.328;10.096;2022-09-03T04:26:08;13.30;99.90
45549;DHT22;31270;48.328;10.096;2022-09-03T04:28:34;13.50;99.90
45549;DHT22;31270;48.328;10.096;2022-09-03T04:31:05;13.30;99.90
45549;DHT22;31270;48.328;10.096;2022-09-03T04:33:32;13.40;99.90
45549;DHT22;31270;48.328;10.096;2022-09-03T04:38:40;13.40;99.90
45549;DHT22;31270;48.328;10.096;2022-09-03T04:41:08;13.40;99.90
45549;DHT22;31270;48.328;10.096;2022-09-03T04:43:34;13.40;99.90
45549;DHT22;31270;48.328;10.096;2022-09-03T04:46:02;13.40;99.90
45549;DHT22;31270;48.328;10.096;2022-09-03T04:48:29;13.40;99.90
45549;DHT22;31270;48.328;10.096;2022-09-03T04:51:02;13.50;99.90
45549;DHT22;31270;48.328;10.096;2022-09-03T04:53:32;13.50;99.90
45549;DHT22;31270;48.328;10.096;2022-09-03T04:55:57;13.40;99.90
45549;DHT22;31270;48.328;10.096;2022-09-03T04:58:23;13.50;99.90
45549;DHT22;31270;48.328;10.096;2022-09-03T05:00:49;13.50;99.90
45549;DHT22;31270;48.328;10.096;2022-09-03T05:03:14;13.50;99.90
45549;DHT22;31270;48.328;10.096;2022-09-03T05:05:40;13.50;99.90
45549;DHT22;31270;48.328;10.096;2022-09-03T05:08:05;13.50;99.90
45549;DHT22;31270;48.328;10.096;2022-09-03T05:10:31;13.60;99.90
45549;DHT22;31270;48.328;10.096;2022-09-03T05:13:02;13.60;99.90
45549;DHT22;31270;48.328;10.096;2022-09-03T05:15:29;13.60;99.90
45549;DHT22;31270;48.328;10.096;2022-09-03T05:17:57;13.50;99.90
45549;DHT22;31270;48.328;10.096;2022-09-03T05:20:23;13.60;99.90
45549;DHT22;31270;48.328;10.096;2022-09-03T05:22:50;13.60;99.90
45549;DHT22;31270;48.328;10.096;2022-09-03T05:25:16;13.60;99.90
45549;DHT22;31270;48.328;10.096;2022-09-03T05:27:42;13.70;99.90
45549;DHT22;31270;48.328;10.096;2022-09-03T05:30:08;13.60;99.90
45549;DHT22;31270;48.328;10.096;2022-09-03T05:32:34;13.50;99.90
45549;DHT22;31270;48.328;10.096;2022-09-03T05:34:59;13.40;99.90
45549;DHT22;31270;48.328;10.096;2022-09-03T05:37:25;13.50;99.90
45549;DHT22;31270;48.328;10.096;2022-09-03T05:39:50;13.60;99.90
45549;DHT22;31270;48.328;10.096;2022-09-03T05:42:16;13.50;99.90
45549;DHT22;31270;48.328;10.096;2022-09-03T05:44:41;13.50;99.90
45549;DHT22;31270;48.328;10.096;2022-09-03T05:47:08;13.60;99.90
45549;DHT22;31270;48.328;10.096;2022-09-03T05:49:34;13.80;99.90
45549;DHT22;31270;48.328;10.096;2022-09-03T05:52:00;13.70;99.90
45549;DHT22;31270;48.328;10.096;2022-09-03T05:54:26;13.80;99.90
45549;DHT22;31270;48.328;10.096;2022-09-03T05:56:51;13.90;99.90
45549;DHT22;31270;48.328;10.096;2022-09-03T05:59:17;13.90;99.90
45549;DHT22;31270;48.328;10.096;2022-09-03T06:01:44;13.90;99.90
45549;DHT22;31270;48.328;10.096;2022-09-03T06:04:13;13.90;99.90
45549;DHT22;31270;48.328;10.096;2022-09-03T06:06:41;14.00;99.90
45549;DHT22;31270;48.328;10.096;2022-09-03T06:09:09;14.20;99.90
45549;DHT22;31270;48.328;10.096;2022-09-03T06:11:36;14.10;99.90
45549;DHT22;31270;48.328;10.096;2022-09-03T06:14:08;14.10;99.90
45549;DHT22;31270;48.328;10.096;2022-09-03T06:16:39;14.10;99.90
45549;DHT22;31270;48.328;10.096;2022-09-03T06:19:06;14.20;99.90
45549;DHT22;31270;48.328;10.096;2022-09-03T06:21:35;14.20;99.90
45549;DHT22;31270;48.328;10.096;2022-09-03T06:24:02;14.30;99.90
45549;DHT22;31270;48.328;10.096;2022-09-03T06:26:28;14.30;99.90
45549;DHT22;31270;48.328;10.096;2022-09-03T06:28:53;14.40;99.90
45549;DHT22;31270;48.328;10.096;2022-09-03T06:31:21;14.50;99.90
45549;DHT22;31270;48.328;10.096;2022-09-03T06:33:47;14.70;99.90
45549;DHT22;31270;48.328;10.096;2022-09-03T06:36:18;14.70;99.90
45549;DHT22;31270;48.328;10.096;2022-09-03T06:38:44;14.80;99.90
45549;DHT22;31270;48.328;10.096;2022-09-03T06:41:12;14.90;99.90
45549;DHT22;31270;48.328;10.096;2022-09-03T06:43:40;15.10;99.90
45549;DHT22;31270;48.328;10.096;2022-09-03T06:46:11;15.20;99.90
45549;DHT22;31270;48.328;10.096;2022-09-03T06:48:38;15.30;99.90
45549;DHT22;31270;48.328;10.096;2022-09-03T06:51:16;15.40;99.90
45549;DHT22;31270;48.328;10.096;2022-09-03T06:53:44;15.50;99.90
45549;DHT22;31270;48.328;10.096;2022-09-03T06:56:12;15.60;99.90
45549;DHT22;31270;48.328;10.096;2022-09-03T06:58:46;15.80;99.90
45549;DHT22;31270;48.328;10.096;2022-09-03T07:01:14;15.90;99.90
45549;DHT22;31270;48.328;10.096;2022-09-03T07:03:42;15.90;99.90
45549;DHT22;31270;48.328;10.096;2022-09-03T07:06:18;16.00;99.90
45549;DHT22;31270;48.328;10.096;2022-09-03T07:08:54;16.10;99.90
45549;DHT22;31270;48.328;10.096;2022-09-03T07:11:33;16.20;99.90
45549;DHT22;31270;48.328;10.096;2022-09-03T07:14:10;16.40;99.90
45549;DHT22;31270;48.328;10.096;2022-09-03T07:16:49;16.50;99.90
45549;DHT22;31270;48.328;10.096;2022-09-03T07:19:25;16.60;99.90
45549;DHT22;31270;48.328;10.096;2022-09-03T07:22:00;16.60;99.90
45549;DHT22;31270;48.328;10.096;2022-09-03T07:24:37;16.70;99.90
45549;DHT22;31270;48.328;10.096;2022-09-03T07:27:12;16.70;99.90
45549;DHT22;31270;48.328;10.096;2022-09-03T07:29:48;16.70;99.90
45549;DHT22;31270;48.328;10.096;2022-09-03T07:32:25;16.80;99.90
45549;DHT22;31270;48.328;10.096;2022-09-03T07:35:05;16.90;99.90
45549;DHT22;31270;48.328;10.096;2022-09-03T07:37:42;17.00;99.90
45549;DHT22;31270;48.328;10.096;2022-09-03T07:40:27;17.00;99.90
45549;DHT22;31270;48.328;10.096;2022-09-03T07:42:57;17.00;99.90
45549;DHT22;31270;48.328;10.096;2022-09-03T07:45:31;17.10;99.90
45549;DHT22;31270;48.328;10.096;2022-09-03T07:48:00;17.20;99.90
45549;DHT22;31270;48.328;10.096;2022-09-03T07:50:29;17.30;99.90
45549;DHT22;31270;48.328;10.096;2022-09-03T07:53:01;17.40;99.90
45549;DHT22;31270;48.328;10.096;2022-09-03T07:55:29;17.50;99.90
45549;DHT22;31270;48.328;10.096;2022-09-03T07:57:58;17.60;99.90
45549;DHT22;31270;48.328;10.096;2022-09-03T08:00:28;17.50;99.90
45549;DHT22;31270;48.328;10.096;2022-09-03T08:02:56;17.60;99.90
45549;DHT22;31270;48.328;10.096;2022-09-03T08:05:31;17.70;99.90
45549;DHT22;31270;48.328;10.096;2022-09-03T08:08:01;17.70;99.90
45549;DHT22;31270;48.328;10.096;2022-09-03T08:10:34;17.90;99.90
45549;DHT22;31270;48.328;10.096;2022-09-03T08:13:03;18.00;99.90
45549;DHT22;31270;48.328;10.096;2022-09-03T08:15:33;18.10;99.90
45549;DHT22;31270;48.328;10.096;2022-09-03T08:18:02;18.20;99.90
45549;DHT22;31270;48.328;10.096;2022-09-03T08:20:31;18.40;99.90
45549;DHT22;31270;48.328;10.096;2022-09-03T08:23:01;18.70;99.90
45549;DHT22;31270;48.328;10.096;2022-09-03T08:25:30;19.10;99.90
45549;DHT22;31270;48.328;10.096;2022-09-03T08:27:59;19.10;99.90
45549;DHT22;31270;48.328;10.096;2022-09-03T08:30:27;19.20;99.90
45549;DHT22;31270;48.328;10.096;2022-09-03T08:33:00;19.30;99.90
45549;DHT22;31270;48.328;10.096;2022-09-03T08:35:32;19.30;99.90
45549;DHT22;31270;48.328;10.096;2022-09-03T08:38:01;19.30;99.90
45549;DHT22;31270;48.328;10.096;2022-09-03T08:40:35;19.50;99.90
45549;DHT22;31270;48.328;10.096;2022-09-03T08:43:14;19.50;99.90
45549;DHT22;31270;48.328;10.096;2022-09-03T08:45:46;19.50;99.90
45549;DHT22;31270;48.328;10.096;2022-09-03T08:48:21;19.40;99.90
45549;DHT22;31270;48.328;10.096;2022-09-03T08:50:51;19.60;99.90
45549;DHT22;31270;48.328;10.096;2022-09-03T08:53:40;19.60;99.90
45549;DHT22;31270;48.328;10.096;2022-09-03T08:56:20;19.70;99.90
45549;DHT22;31270;48.328;10.096;2022-09-03T08:58:51;19.80;99.90
45549;DHT22;31270;48.328;10.096;2022-09-03T09:01:42;19.90;99.90
45549;DHT22;31270;48.328;10.096;2022-09-03T09:04:31;19.90;99.90
45549;DHT22;31270;48.328;10.096;2022-09-03T09:07:10;19.90;99.90
45549;DHT22;31270;48.328;10.096;2022-09-03T09:10:09;19.80;99.90
45549;DHT22;31270;48.328;10.096;2022-09-03T09:13:06;19.90;99.90
45549;DHT22;31270;48.328;10.096;2022-09-03T09:21:08;20.00;99.90
45549;DHT22;31270;48.328;10.096;2022-09-03T09:23:43;20.10;99.90
45549;DHT22;31270;48.328;10.096;2022-09-03T09:26:16;20.20;99.90
45549;DHT22;31270;48.328;10.096;2022-09-03T09:28:47;20.40;99.90
45549;DHT22;31270;48.328;10.096;2022-09-03T09:31:20;20.60;99.90
45549;DHT22;31270;48.328;10.096;2022-09-03T09:33:49;20.90;99.90
45549;DHT22;31270;48.328;10.096;2022-09-03T09:36:21;20.90;99.90
45549;DHT22;31270;48.328;10.096;2022-09-03T09:38:50;21.10;99.90
45549;DHT22;31270;48.328;10.096;2022-09-03T09:41:20;21.10;99.90
45549;DHT22;31270;48.328;10.096;2022-09-03T09:44:02;21.20;99.90
45549;DHT22;31270;48.328;10.096;2022-09-03T09:46:37;21.10;99.90
45549;DHT22;31270;48.328;10.096;2022-09-03T09:49:36;21.40;99.90
45549;DHT22;31270;48.328;10.096;2022-09-03T09:52:11;21.80;99.90
45549;DHT22;31270;48.328;10.096;2022-09-03T09:54:43;22.10;99.90
45549;DHT22;31270;48.328;10.096;2022-09-03T09:57:16;22.30;99.90
45549;DHT22;31270;48.328;10.096;2022-09-03T09:59:45;22.30;99.90
45549;DHT22;31270;48.328;10.096;2022-09-03T10:02:18;22.30;99.90
45549;DHT22;31270;48.328;10.096;2022-09-03T10:04:47;22.40;99.90
45549;DHT22;31270;48.328;10.096;2022-09-03T10:07:25;22.60;99.90
45549;DHT22;31270;48.328;10.096;2022-09-03T10:10:15;22.60;99.90
45549;DHT22;31270;48.328;10.096;2022-09-03T10:12:54;22.70;99.90
45549;DHT22;31270;48.328;10.096;2022-09-03T10:21:23;22.50;99.90
45549;DHT22;31270;48.328;10.096;2022-09-03T10:26:23;22.60;99.90
45549;DHT22;31270;48.328;10.096;2022-09-03T10:29:00;22.70;99.90
45549;DHT22;31270;48.328;10.096;2022-09-03T10:32:01;22.70;99.90
45549;DHT22;31270;48.328;10.096;2022-09-03T10:34:40;22.70;99.90
45549;DHT22;31270;48.328;10.096;2022-09-03T10:37:32;22.80;99.90
45549;DHT22;31270;48.328;10.096;2022-09-03T10:40:17;23.10;99.90
45549;DHT22;31270;48.328;10.096;2022-09-03T10:43:07;23.40;99.90
45549;DHT22;31270;48.328;10.096;2022-09-03T10:46:09;23.70;99.90
45549;DHT22;31270;48.328;10.096;2022-09-03T10:51:35;24.20;99.90
45549;DHT22;31270;48.328;10.096;2022-09-03T10:54:25;24.60;99.90
45549;DHT22;31270;48.328;10.096;2022-09-03T11:05:23;25.60;99.90
45549;DHT22;31270;48.328;10.096;2022-09-03T11:08:14;25.10;99.90
45549;DHT22;31270;48.328;10.096;2022-09-03T11:10:49;25.10;99.90
45549;DHT22;31270;48.328;10.096;2022-09-03T11:13:21;25.50;99.90
45549;DHT22;31270;48.328;10.096;2022-09-03T11:15:55;25.60;99.90
45549;DHT22;31270;48.328;10.096;2022-09-03T11:18:28;26.10;99.90
45549;DHT22;31270;48.328;10.096;2022-09-03T11:20:58;26.30;99.90
45549;DHT22;31270;48.328;10.096;2022-09-03T11:23:27;26.60;99.90
45549;DHT22;31270;48.328;10.096;2022-09-03T11:26:16;26.70;99.90
45549;DHT22;31270;48.328;10.096;2022-09-03T11:34:07;27.50;99.90
45549;DHT22;31270;48.328;10.096;2022-09-03T11:36:35;27.70;99.90
45549;DHT22;31270;48.328;10.096;2022-09-03T11:39:37;27.80;99.90
45549;DHT22;31270;48.328;10.096;2022-09-03T11:42:09;27.80;99.90
45549;DHT22;31270;48.328;10.096;2022-09-03T11:44:41;27.80;99.90
45549;DHT22;31270;48.328;10.096;2022-09-03T11:47:20;27.80;99.90
45549;DHT22;31270;48.328;10.096;2022-09-03T11:49:51;27.90;99.90
45549;DHT22;31270;48.328;10.096;2022-09-03T11:52:28;28.00;99.90
45549;DHT22;31270;48.328;10.096;2022-09-03T11:54:54;27.90;99.90
45549;DHT22;31270;48.328;10.096;2022-09-03T11:57:29;27.90;99.90
45549;DHT22;31270;48.328;10.096;2022-09-03T12:00:16;27.80;99.90
45549;DHT22;31270;48.328;10.096;2022-09-03T12:02:56;27.40;99.90
45549;DHT22;31270;48.328;10.096;2022-09-03T12:06:30;27.30;99.90
45549;DHT22;31270;48.328;10.096;2022-09-03T12:08:43;27.10;99.90
45549;DHT22;31270;48.328;10.096;2022-09-03T12:11:20;26.60;99.90
45549;DHT22;31270;48.328;10.096;2022-09-03T12:18:50;23.10;99.90
45549;DHT22;31270;48.328;10.096;2022-09-03T12:21:20;21.40;99.90
45549;DHT22;31270;48.328;10.096;2022-09-03T12:26:24;19.70;99.90
45549;DHT22;31270;48.328;10.096;2022-09-03T12:28:56;19.70;99.90
45549;DHT22;31270;48.328;10.096;2022-09-03T12:31:28;19.60;99.90
45549;DHT22;31270;48.328;10.096;2022-09-03T12:34:01;19.70;99.90
45549;DHT22;31270;48.328;10.096;2022-09-03T12:36:37;19.70;99.90
45549;DHT22;31270;48.328;10.096;2022-09-03T12:39:18;20.10;99.90
45549;DHT22;31270;48.328;10.096;2022-09-03T12:42:03;20.20;99.90
45549;DHT22;31270;48.328;10.096;2022-09-03T12:47:11;20.50;99.90
45549;DHT22;31270;48.328;10.096;2022-09-03T12:49:40;20.50;99.90
45549;DHT22;31270;48.328;10.096;2022-09-03T12:52:16;20.60;99.90
45549;DHT22;31270;48.328;10.096;2022-09-03T12:55:00;20.60;99.90
45549;DHT22;31270;48.328;10.096;2022-09-03T12:57:40;20.70;99.90
45549;DHT22;31270;48.328;10.096;2022-09-03T13:00:09;20.90;99.90
45549;DHT22;31270;48.328;10.096;2022-09-03T13:02:43;21.00;99.90
45549;DHT22;31270;48.328;10.096;2022-09-03T13:05:17;21.20;99.90
45549;DHT22;31270;48.328;10.096;2022-09-03T13:07:48;21.50;99.90
45549;DHT22;31270;48.328;10.096;2022-09-03T13:10:29;21.90;99.90
45549;DHT22;31270;48.328;10.096;2022-09-03T13:13:01;22.00;99.90
45549;DHT22;31270;48.328;10.096;2022-09-03T13:15:28;22.10;99.90
45549;DHT22;31270;48.328;10.096;2022-09-03T13:18:12;22.40;99.90
45549;DHT22;31270;48.328;10.096;2022-09-03T13:31:40;22.60;99.90
45549;DHT22;31270;48.328;10.096;2022-09-03T13:34:14;22.90;99.90
45549;DHT22;31270;48.328;10.096;2022-09-03T13:36:50;22.80;99.90
45549;DHT22;31270;48.328;10.096;2022-09-03T13:39:29;22.90;99.90
45549;DHT22;31270;48.328;10.096;2022-09-03T13:42:17;22.60;99.90
45549;DHT22;31270;48.328;10.096;2022-09-03T13:44:51;22.40;99.90
45549;DHT22;31270;48.328;10.096;2022-09-03T13:50:03;22.30;99.90
45549;DHT22;31270;48.328;10.096;2022-09-03T13:52:57;22.30;99.90
45549;DHT22;31270;48.328;10.096;2022-09-03T13:55:44;22.20;99.90
45549;DHT22;31270;48.328;10.096;2022-09-03T13:58:23;22.30;99.90
45549;DHT22;31270;48.328;10.096;2022-09-03T14:01:10;22.30;99.90
45549;DHT22;31270;48.328;10.096;2022-09-03T14:03:50;22.10;99.90
45549;DHT22;31270;48.328;10.096;2022-09-03T14:06:39;21.80;99.90
45549;DHT22;31270;48.328;10.096;2022-09-03T14:14:52;21.10;99.90
45549;DHT22;31270;48.328;10.096;2022-09-03T14:17:39;21.10;99.90
45549;DHT22;31270;48.328;10.096;2022-09-03T14:25:12;20.50;99.90
45549;DHT22;31270;48.328;10.096;2022-09-03T14:27:40;20.60;99.90
45549;DHT22;31270;48.328;10.096;2022-09-03T14:32:57;21.00;99.90
45549;DHT22;31270;48.328;10.096;2022-09-03T14:41:30;21.00;99.90
45549;DHT22;31270;48.328;10.096;2022-09-03T14:50:02;21.30;99.90
45549;DHT22;31270;48.328;10.096;2022-09-03T14:55:47;21.50;99.90
45549;DHT22;31270;48.328;10.096;2022-09-03T14:58:44;21.50;99.90
45549;DHT22;31270;48.328;10.096;2022-09-03T15:06:46;21.90;99.90
45549;DHT22;31270;48.328;10.096;2022-09-03T15:12:00;22.20;99.90
45549;DHT22;31270;48.328;10.096;2022-09-03T15:14:41;22.10;99.90
45549;DHT22;31270;48.328;10.096;2022-09-03T15:17:40;22.00;99.90
45549;DHT22;31270;48.328;10.096;2022-09-03T15:23:22;22.00;99.90
45549;DHT22;31270;48.328;10.096;2022-09-03T15:26:04;22.10;99.90
45549;DHT22;31270;48.328;10.096;2022-09-03T15:28:38;22.00;99.90
45549;DHT22;31270;48.328;10.096;2022-09-03T15:34:08;22.00;99.90
45549;DHT22;31270;48.328;10.096;2022-09-03T15:36:39;21.80;99.90
45549;DHT22;31270;48.328;10.096;2022-09-03T15:39:10;21.80;99.90
45549;DHT22;31270;48.328;10.096;2022-09-03T15:41:43;21.60;99.90
45549;DHT22;31270;48.328;10.096;2022-09-03T15:44:15;21.40;99.90
45549;DHT22;31270;48.328;10.096;2022-09-03T15:47:03;21.20;99.90
45549;DHT22;31270;48.328;10.096;2022-09-03T15:55:38;21.30;99.90
45549;DHT22;31270;48.328;10.096;2022-09-03T16:03:19;21.10;99.90
45549;DHT22;31270;48.328;10.096;2022-09-03T16:05:54;20.90;99.90
45549;DHT22;31270;48.328;10.096;2022-09-03T16:08:41;20.90;99.90
45549;DHT22;31270;48.328;10.096;2022-09-03T16:11:15;20.90;99.90
45549;DHT22;31270;48.328;10.096;2022-09-03T16:19:10;20.60;99.90
45549;DHT22;31270;48.328;10.096;2022-09-03T16:21:54;20.60;99.90
45549;DHT22;31270;48.328;10.096;2022-09-03T16:24:30;20.50;99.90
45549;DHT22;31270;48.328;10.096;2022-09-03T16:27:10;20.40;99.90
45549;DHT22;31270;48.328;10.096;2022-09-03T16:29:39;20.40;99.90
45549;DHT22;31270;48.328;10.096;2022-09-03T16:32:22;20.40;99.90
45549;DHT22;31270;48.328;10.096;2022-09-03T16:40:39;20.40;99.90
45549;DHT22;31270;48.328;10.096;2022-09-03T16:43:21;20.40;99.90
45549;DHT22;31270;48.328;10.096;2022-09-03T16:46:14;20.30;99.90
45549;DHT22;31270;48.328;10.096;2022-09-03T16:55:15;20.10;99.90
45549;DHT22;31270;48.328;10.096;2022-09-03T16:57:47;20.00;99.90
45549;DHT22;31270;48.328;10.096;2022-09-03T17:00:35;20.00;99.90
45549;DHT22;31270;48.328;10.096;2022-09-03T17:14:56;19.80;99.90
45549;DHT22;31270;48.328;10.096;2022-09-03T17:26:21;19.70;99.90
45549;DHT22;31270;48.328;10.096;2022-09-03T17:34:54;19.50;99.90
45549;DHT22;31270;48.328;10.096;2022-09-03T17:40:31;19.30;99.90
45549;DHT22;31270;48.328;10.096;2022-09-03T17:43:14;19.30;99.90
45549;DHT22;31270;48.328;10.096;2022-09-03T17:48:51;19.10;99.90
45549;DHT22;31270;48.328;10.096;2022-09-03T17:51:24;19.00;99.90
45549;DHT22;31270;48.328;10.096;2022-09-03T17:54:04;19.00;99.90
45549;DHT22;31270;48.328;10.096;2022-09-03T17:56:39;18.90;99.90
45549;DHT22;31270;48.328;10.096;2022-09-03T17:59:20;18.80;99.90
45549;DHT22;31270;48.328;10.096;2022-09-03T18:02:00;18.80;99.90
45549;DHT22;31270;48.328;10.096;2022-09-03T18:04:29;18.70;99.90
45549;DHT22;31270;48.328;10.096;2022-09-03T18:07:07;18.60;99.90
45549;DHT22;31270;48.328;10.096;2022-09-03T18:09:41;18.50;99.90
45549;DHT22;31270;48.328;10.096;2022-09-03T18:12:14;18.40;99.90
45549;DHT22;31270;48.328;10.096;2022-09-03T18:14:49;18.40;99.90
45549;DHT22;31270;48.328;10.096;2022-09-03T18:17:26;18.30;99.90
45549;DHT22;31270;48.328;10.096;2022-09-03T18:20:02;18.20;99.90
45549;DHT22;31270;48.328;10.096;2022-09-03T18:22:55;18.10;99.90
45549;DHT22;31270;48.328;10.096;2022-09-03T18:25:44;18.00;99.90
45549;DHT22;31270;48.328;10.096;2022-09-03T18:28:53;18.00;99.90
45549;DHT22;31270;48.328;10.096;2022-09-03T18:31:40;17.90;99.90
45549;DHT22;31270;48.328;10.096;2022-09-03T18:34:30;17.80;99.90
45549;DHT22;31270;48.328;10.096;2022-09-03T18:37:21;17.80;99.90
45549;DHT22;31270;48.328;10.096;2022-09-03T18:40:08;17.70;99.90
45549;DHT22;31270;48.328;10.096;2022-09-03T18:43:18;17.70;99.90
45549;DHT22;31270;48.328;10.096;2022-09-03T18:49:01;17.60;99.90
45549;DHT22;31270;48.328;10.096;2022-09-03T19:01:32;17.40;99.90
45549;DHT22;31270;48.328;10.096;2022-09-03T19:07:20;17.30;99.90
45549;DHT22;31270;48.328;10.096;2022-09-03T19:10:28;17.20;99.90
45549;DHT22;31270;48.328;10.096;2022-09-03T19:13:23;17.10;99.90
45549;DHT22;31270;48.328;10.096;2022-09-03T19:16:36;17.10;99.90
45549;DHT22;31270;48.328;10.096;2022-09-03T19:19:44;17.00;99.90
45549;DHT22;31270;48.328;10.096;2022-09-03T19:22:37;17.00;99.90
45549;DHT22;31270;48.328;10.096;2022-09-03T19:25:23;17.00;99.90
45549;DHT22;31270;48.328;10.096;2022-09-03T19:28:23;17.00;99.90
45549;DHT22;31270;48.328;10.096;2022-09-03T19:31:34;17.00;99.90
45549;DHT22;31270;48.328;10.096;2022-09-03T19:37:27;16.90;99.90
45549;DHT22;31270;48.328;10.096;2022-09-03T19:40:40;16.90;99.90
45549;DHT22;31270;48.328;10.096;2022-09-03T19:46:50;16.80;99.90
45549;DHT22;31270;48.328;10.096;2022-09-03T19:52:53;16.90;99.90
45549;DHT22;31270;48.328;10.096;2022-09-03T19:55:45;16.90;99.90